Time;durP1;ratioP1;P1;durP2;ratioP2;P2;SDS_P1;SDS_P2;PMS_P1;PMS_P2;Temp;Humidity;BMP_temperature;BMP_pressure;BME280_temperature;BME280_humidity;BME280_pressure;Samples;Min_cycle;Max_cycle;Signal;HPM_P1;HPM_P2
2022/03/07 00:01:33;;;;;;;19.92;9.77;;;;;;;-2.61;55.49;94026.72;5029473;28;20053;-58
2022/03/07 00:04:02;;;;;;;20.48;9.63;;;;;;;-2.59;55.19;94040.63;5023164;28;20051;-59
2022/03/07 00:06:29;;;;;;;20.50;9.60;;;;;;;-2.61;54.75;94026.72;5030554;28;20045;-61
2022/03/07 00:08:58;;;;;;;21.98;10.20;;;;;;;-2.71;55.55;94037.88;5029060;28;20483;-61
2022/03/07 00:11:25;;;;;;;20.63;9.60;;;;;;;-2.68;55.57;94037.97;5029317;28;20045;-61
2022/03/07 00:13:52;;;;;;;20.35;9.27;;;;;;;-2.73;55.40;94034.72;5029195;28;20049;-61
2022/03/07 00:16:18;;;;;;;19.90;9.48;;;;;;;-2.75;55.83;94045.81;5028757;28;20059;-60
2022/03/07 00:18:45;;;;;;;20.60;8.93;;;;;;;-2.84;55.89;94040.50;5028738;28;20042;-61
2022/03/07 00:21:12;;;;;;;21.92;10.43;;;;;;;-2.96;56.14;94045.78;5028719;28;20037;-61
2022/03/07 00:23:39;;;;;;;18.50;9.20;;;;;;;-2.85;55.18;94044.28;5029170;28;20056;-59
2022/03/07 00:26:07;;;;;;;20.35;9.27;;;;;;;-2.79;55.53;94047.56;5028678;28;20053;-61
2022/03/07 00:28:34;;;;;;;19.73;9.07;;;;;;;-2.88;56.15;94044.16;5028870;28;20060;-61
2022/03/07 00:31:07;;;;;;;19.77;9.48;;;;;;;-2.85;55.53;94054.25;5027324;28;20045;-61
2022/03/07 00:33:36;;;;;;;20.25;9.93;;;;;;;-2.91;55.91;94042.13;5027391;28;20079;-61
2022/03/07 00:36:05;;;;;;;20.37;9.97;;;;;;;-2.99;56.27;94046.44;5027018;28;20446;-61
2022/03/07 00:38:33;;;;;;;19.05;9.25;;;;;;;-2.98;56.19;94041.84;5028547;28;20048;-61
2022/03/07 00:41:00;;;;;;;20.70;9.95;;;;;;;-3.02;56.55;94053.25;5026922;28;20095;-62
2022/03/07 00:43:27;;;;;;;20.23;9.13;;;;;;;-3.01;56.17;94045.97;5027514;28;20049;-61
2022/03/07 00:45:54;;;;;;;19.05;8.85;;;;;;;-3.11;56.41;94041.78;5028810;28;20052;-61
2022/03/07 00:48:21;;;;;;;19.23;9.30;;;;;;;-3.09;56.78;94049.50;5027699;28;20619;-61
2022/03/07 00:50:51;;;;;;;20.30;9.25;;;;;;;-3.11;56.79;94046.38;5027312;28;20041;-61
2022/03/07 00:53:20;;;;;;;20.10;10.60;;;;;;;-3.23;57.04;94047.06;5027812;28;20048;-61
2022/03/07 00:55:47;;;;;;;19.88;9.48;;;;;;;-3.15;56.83;94042.75;5026888;28;20056;-61
2022/03/07 00:58:14;;;;;;;19.73;9.30;;;;;;;-3.15;56.57;94042.75;5028104;28;20052;-61
2022/03/07 01:00:42;;;;;;;20.77;10.20;;;;;;;-3.25;57.16;94041.25;5028506;28;20052;-61
2022/03/07 01:03:11;;;;;;;21.58;10.18;;;;;;;-3.29;57.77;94043.78;5019620;28;20041;-61
2022/03/07 01:05:39;;;;;;;27.95;13.52;;;;;;;-3.21;58.21;94037.56;5033252;28;20114;-61
2022/03/07 01:08:07;;;;;;;22.55;10.38;;;;;;;-3.25;57.08;94033.19;5028033;28;20056;-61
2022/03/07 01:10:35;;;;;;;24.10;10.90;;;;;;;-3.30;57.66;94033.38;5028075;28;20258;-61
2022/03/07 01:13:02;;;;;;;22.57;10.70;;;;;;;-3.37;58.07;94039.25;5028086;28;20237;-61
2022/03/07 01:15:29;;;;;;;21.13;10.43;;;;;;;-3.34;58.02;94035.94;5028174;28;20095;-62
2022/03/07 01:17:59;;;;;;;21.27;10.35;;;;;;;-3.35;57.66;94030.88;5027761;28;20091;-61
2022/03/07 01:20:27;;;;;;;21.42;10.30;;;;;;;-3.43;58.03;94045.91;5028595;28;20041;-61
2022/03/07 01:22:54;;;;;;;22.83;10.68;;;;;;;-3.52;58.59;94042.47;5028485;28;20085;-61
2022/03/07 01:25:23;;;;;;;21.87;10.10;;;;;;;-3.45;58.32;94037.41;5027355;28;20606;-62
2022/03/07 01:27:50;;;;;;;22.55;10.07;;;;;;;-3.48;58.46;94030.78;5028248;28;20053;-59
2022/03/07 01:30:20;;;;;;;21.60;9.98;;;;;;;-3.57;58.36;94040.78;5026149;28;20862;-60
2022/03/07 01:32:47;;;;;;;20.42;9.70;;;;;;;-3.49;57.97;94039.16;5026694;28;20041;-59
2022/03/07 01:35:13;;;;;;;23.17;10.00;;;;;;;-3.50;58.25;94029.53;5026411;28;20057;-58
2022/03/07 01:37:40;;;;;;;22.93;9.97;;;;;;;-3.54;58.14;94033.97;5028050;28;20041;-59
2022/03/07 01:40:07;;;;;;;22.50;10.25;;;;;;;-3.67;58.71;94036.56;5027629;28;20059;-59
2022/03/07 01:42:34;;;;;;;22.42;10.73;;;;;;;-3.66;58.16;94037.34;5028132;28;20046;-58
2022/03/07 01:45:13;;;;;;;52.03;20.02;;;;;;;-3.60;59.05;94038.75;5027669;28;20053;-58
2022/03/07 01:47:40;;;;;;;22.08;10.35;;;;;;;-3.65;58.70;94034.31;5027555;28;20118;-58
2022/03/07 01:50:10;;;;;;;24.70;10.50;;;;;;;-3.66;58.95;94038.13;5027697;28;20045;-58
2022/03/07 01:52:38;;;;;;;22.92;10.43;;;;;;;-3.74;58.70;94030.91;5027533;28;20052;-58
2022/03/07 01:55:07;;;;;;;21.65;10.70;;;;;;;-3.75;59.37;94034.69;5027254;28;20390;-59
2022/03/07 01:57:43;;;;;;;23.60;10.50;;;;;;;-3.69;58.99;94029.94;5027652;28;20041;-58
2022/03/07 02:00:14;;;;;;;22.92;10.35;;;;;;;-3.70;59.28;94025.66;5027527;28;20429;-58
2022/03/07 02:02:42;;;;;;;22.07;10.40;;;;;;;-3.74;59.13;94020.19;5027499;28;20046;-59
2022/03/07 02:05:10;;;;;;;24.48;11.30;;;;;;;-3.90;59.78;94021.84;5040399;28;20114;-58
2022/03/07 02:07:38;;;;;;;23.35;10.75;;;;;;;-3.83;59.03;94022.88;5051513;28;20063;-59
2022/03/07 02:10:07;;;;;;;21.52;10.10;;;;;;;-3.86;59.52;94020.09;5051166;28;20049;-59
2022/03/07 02:12:34;;;;;;;22.67;10.85;;;;;;;-3.81;59.42;94014.53;5051195;28;20045;-59
2022/03/07 02:15:02;;;;;;;22.63;10.87;;;;;;;-3.89;59.39;94013.44;5050803;28;20044;-59
2022/03/07 02:17:29;;;;;;;22.90;10.50;;;;;;;-3.93;59.76;94009.84;5051108;28;20045;-58
2022/03/07 02:19:56;;;;;;;22.58;10.45;;;;;;;-3.96;60.24;94009.69;5049411;28;20053;-58
2022/03/07 02:22:23;;;;;;;61.15;25.55;;;;;;;-3.90;60.18;94011.13;5049992;28;20037;-59
2022/03/07 02:24:50;;;;;;;25.05;11.73;;;;;;;-3.90;60.16;94013.78;5051170;28;20076;-58
2022/03/07 02:27:18;;;;;;;22.80;9.97;;;;;;;-3.98;60.22;94002.00;5049571;28;20063;-59
2022/03/07 02:29:48;;;;;;;22.58;10.45;;;;;;;-4.01;60.52;94011.44;5051055;28;20059;-58
2022/03/07 02:32:14;;;;;;;25.90;10.98;;;;;;;-4.02;60.94;94009.09;5049390;28;20049;-59
2022/03/07 02:34:41;;;;;;;22.55;10.55;;;;;;;-3.97;60.77;94005.44;5050785;28;20356;-61
2022/03/07 02:37:08;;;;;;;23.13;11.05;;;;;;;-4.03;61.00;94016.34;5041254;28;20045;-59
2022/03/07 02:39:35;;;;;;;24.30;11.27;;;;;;;-4.07;61.46;94007.38;5022366;28;20065;-58
2022/03/07 02:42:21;;;;;;;25.17;11.38;;;;;;;-4.10;61.43;94012.59;5010443;28;20492;-58
2022/03/07 02:44:48;;;;;;;25.73;11.30;;;;;;;-4.18;61.74;94010.75;5011005;28;20114;-58
2022/03/07 02:47:15;;;;;;;22.67;10.98;;;;;;;-4.14;61.60;94006.31;5020419;28;20045;-58
2022/03/07 02:49:43;;;;;;;23.02;11.02;;;;;;;-4.12;61.32;94004.09;5030746;28;20061;-61
2022/03/07 02:52:10;;;;;;;23.60;10.57;;;;;;;-4.17;61.94;93999.69;5030559;28;20359;-61
2022/03/07 02:54:38;;;;;;;24.05;11.15;;;;;;;-4.18;61.89;93998.13;5030474;28;20071;-61
2022/03/07 02:57:06;;;;;;;24.90;11.07;;;;;;;-4.25;62.22;94009.31;5062040;28;20037;-61
2022/03/07 02:59:33;;;;;;;24.08;10.68;;;;;;;-4.25;62.43;94003.94;5031056;28;20095;-61
2022/03/07 03:02:00;;;;;;;24.35;10.57;;;;;;;-4.25;62.32;94005.84;5028826;28;20041;-61
2022/03/07 03:04:27;;;;;;;25.57;11.03;;;;;;;-4.33;63.09;94006.66;5044518;28;20098;-61
2022/03/07 03:06:54;;;;;;;23.52;10.85;;;;;;;-4.30;62.43;93998.00;5069138;28;20776;-60
2022/03/07 03:09:21;;;;;;;23.45;11.18;;;;;;;-4.31;62.30;94001.78;5069690;28;20082;-61
2022/03/07 03:11:49;;;;;;;25.30;11.50;;;;;;;-4.39;62.81;94000.69;5070212;28;20106;-60
2022/03/07 03:14:15;;;;;;;27.30;11.77;;;;;;;-4.31;62.78;93996.41;5069780;28;20044;-60
2022/03/07 03:16:42;;;;;;;26.03;10.73;;;;;;;-4.36;62.79;93989.34;5069497;28;20041;-62
2022/03/07 03:19:09;;;;;;;24.35;11.23;;;;;;;-4.40;62.88;93999.13;5068607;28;20538;-61
2022/03/07 03:21:36;;;;;;;24.40;11.38;;;;;;;-4.39;63.07;94000.69;5070115;28;20051;-63
2022/03/07 03:24:03;;;;;;;25.00;11.32;;;;;;;-4.40;62.99;93995.66;5069856;28;20044;-62
2022/03/07 03:26:29;;;;;;;23.10;11.00;;;;;;;-4.42;62.96;94006.69;5070131;28;20044;-61
2022/03/07 03:28:56;;;;;;;26.27;11.47;;;;;;;-4.44;63.42;93996.28;5069340;28;20045;-61
2022/03/07 03:31:23;;;;;;;24.42;11.48;;;;;;;-4.44;62.98;94001.66;5069911;28;20062;-61
2022/03/07 03:33:52;;;;;;;24.33;11.43;;;;;;;-4.47;64.15;94001.50;5069537;28;20048;-61
2022/03/07 03:36:19;;;;;;;26.95;12.15;;;;;;;-4.46;63.79;94009.22;5067984;28;20051;-61
2022/03/07 03:38:46;;;;;;;28.17;12.98;;;;;;;-4.52;63.66;93994.41;5035277;28;20042;-61
2022/03/07 03:41:13;;;;;;;26.03;11.13;;;;;;;-4.54;63.67;93999.31;5044966;28;20049;-61
2022/03/07 03:43:40;;;;;;;25.02;11.88;;;;;;;-4.54;64.40;93991.28;5048132;28;20512;-61
2022/03/07 03:46:06;;;;;;;25.75;11.43;;;;;;;-4.59;64.26;93990.66;5049291;28;20049;-61
2022/03/07 03:48:33;;;;;;;23.90;11.48;;;;;;;-4.64;64.32;93994.28;5048153;28;20053;-61
2022/03/07 03:51:00;;;;;;;25.90;11.35;;;;;;;-4.66;64.73;93993.81;5047715;28;20348;-61
2022/03/07 03:53:27;;;;;;;26.73;11.73;;;;;;;-4.61;64.69;93990.97;5049624;28;20052;-61
2022/03/07 03:55:54;;;;;;;25.13;11.13;;;;;;;-4.58;64.48;93992.22;5049110;28;20051;-61
2022/03/07 03:58:21;;;;;;;24.42;11.20;;;;;;;-4.62;64.77;93998.22;5048661;28;20516;-61
2022/03/07 04:00:47;;;;;;;24.48;11.07;;;;;;;-4.57;64.67;93993.78;5049192;28;20041;-61
2022/03/07 04:03:14;;;;;;;26.33;11.93;;;;;;;-4.57;64.51;93993.78;5048984;28;20101;-61
2022/03/07 04:05:41;;;;;;;25.00;11.40;;;;;;;-4.67;64.67;93989.53;5065944;28;20058;-61
2022/03/07 04:08:08;;;;;;;26.50;11.27;;;;;;;-4.67;64.69;93989.53;5068791;28;20067;-61
2022/03/07 04:10:35;;;;;;;26.02;11.38;;;;;;;-4.63;64.54;93993.16;5068934;28;20051;-61
2022/03/07 04:13:02;;;;;;;25.83;12.52;;;;;;;-4.78;65.58;93999.03;5068451;28;20051;-61
2022/03/07 04:15:29;;;;;;;25.33;11.13;;;;;;;-4.74;65.53;94006.09;5067609;28;20044;-61
2022/03/07 04:17:55;;;;;;;25.97;12.23;;;;;;;-4.81;66.18;94005.78;5068237;28;20649;-61
2022/03/07 04:20:24;;;;;;;27.10;11.65;;;;;;;-4.81;66.15;94003.09;5069017;28;20044;-61
2022/03/07 04:22:52;;;;;;;25.83;12.10;;;;;;;-4.85;66.35;94000.28;5034491;28;20056;-60
2022/03/07 04:25:19;;;;;;;27.48;11.80;;;;;;;-4.86;66.03;94001.38;5068325;28;20032;-61
2022/03/07 04:27:46;;;;;;;27.00;11.95;;;;;;;-4.96;66.89;94007.06;5068537;28;20166;-61
2022/03/07 04:30:13;;;;;;;26.27;12.00;;;;;;;-4.85;67.12;94002.97;5068293;28;20054;-61
2022/03/07 04:32:40;;;;;;;27.98;12.43;;;;;;;-4.87;66.89;94007.03;5068476;28;20042;-63
2022/03/07 04:35:10;;;;;;;25.98;11.35;;;;;;;-4.94;67.71;94017.47;5068245;28;20341;-60
2022/03/07 04:37:41;;;;;;;25.83;11.68;;;;;;;-4.98;67.93;94011.94;5051078;28;20044;-61
2022/03/07 04:40:12;;;;;;;26.95;11.82;;;;;;;-4.97;67.48;94010.84;5029186;28;20057;-61
2022/03/07 04:42:41;;;;;;;23.53;11.20;;;;;;;-4.99;68.38;94015.69;5028744;28;20063;-63
2022/03/07 04:45:08;;;;;;;29.25;12.02;;;;;;;-4.99;67.93;94025.63;5027932;28;20503;-58
2022/03/07 04:47:35;;;;;;;26.35;12.07;;;;;;;-4.94;67.85;94020.91;5027534;28;20067;-61
2022/03/07 04:50:03;;;;;;;26.40;11.90;;;;;;;-4.97;68.30;94010.84;5027896;28;20160;-61
2022/03/07 04:52:29;;;;;;;26.17;11.77;;;;;;;-4.94;68.02;94015.56;5028539;28;20037;-61
2022/03/07 04:54:56;;;;;;;32.77;12.70;;;;;;;-5.04;68.68;94015.88;5027912;28;20067;-61
2022/03/07 04:57:23;;;;;;;32.55;13.60;;;;;;;-5.11;68.44;94026.25;5043775;28;20547;-61
2022/03/07 04:59:50;;;;;;;28.33;12.90;;;;;;;-5.09;68.96;94014.16;5028301;28;20052;-61
2022/03/07 05:02:16;;;;;;;26.67;11.30;;;;;;;-5.09;69.24;94016.00;5026959;28;20068;-60
2022/03/07 05:04:43;;;;;;;27.55;12.38;;;;;;;-5.12;69.61;94008.63;5046245;28;20052;-61
2022/03/07 05:07:10;;;;;;;28.70;12.00;;;;;;;-5.11;69.35;94023.56;5067826;28;20040;-61
2022/03/07 05:09:37;;;;;;;30.00;13.10;;;;;;;-5.09;69.09;94019.50;5068484;28;20051;-60
2022/03/07 05:12:04;;;;;;;29.50;12.10;;;;;;;-5.11;69.88;94013.69;5066440;28;20063;-61
2022/03/07 05:14:30;;;;;;;31.63;13.55;;;;;;;-5.10;69.31;94025.94;5067122;28;20381;-61
2022/03/07 05:16:57;;;;;;;30.17;13.40;;;;;;;-5.05;69.38;94025.00;5049281;28;20060;-61
2022/03/07 05:19:24;;;;;;;26.73;11.97;;;;;;;-5.12;69.23;94022.78;5068491;28;20045;-60
2022/03/07 05:21:50;;;;;;;26.48;11.88;;;;;;;-5.17;70.04;94008.78;5067831;28;20051;-61
2022/03/07 05:24:17;;;;;;;29.10;13.88;;;;;;;-5.22;70.22;94015.84;5067512;28;20036;-61
2022/03/07 05:26:44;;;;;;;34.53;17.33;;;;;;;-5.15;69.62;94020.75;5067756;28;20063;-61
2022/03/07 05:29:11;;;;;;;29.40;12.38;;;;;;;-5.20;69.84;94022.78;5067743;28;20048;-61
2022/03/07 05:31:37;;;;;;;25.97;11.23;;;;;;;-5.22;69.85;94015.84;5066696;28;20036;-61
2022/03/07 05:34:04;;;;;;;26.48;11.82;;;;;;;-5.25;70.18;94019.16;5067276;28;20047;-61
2022/03/07 05:36:31;;;;;;;27.70;11.88;;;;;;;-5.22;70.28;94015.84;5067840;28;20036;-61
2022/03/07 05:38:58;;;;;;;27.90;12.23;;;;;;;-5.20;70.11;94014.75;5066661;28;20051;-58
2022/03/07 05:41:25;;;;;;;27.00;12.70;;;;;;;-5.28;70.19;94019.00;5069917;28;20051;-59
2022/03/07 05:43:52;;;;;;;26.37;11.67;;;;;;;-5.26;70.18;94017.59;5071520;28;20044;-61
2022/03/07 05:46:19;;;;;;;26.80;11.80;;;;;;;-5.22;70.39;94012.41;5071007;28;20048;-61
2022/03/07 05:48:45;;;;;;;29.40;13.75;;;;;;;-5.31;70.28;94009.72;5070223;28;20051;-60
2022/03/07 05:51:12;;;;;;;29.15;13.02;;;;;;;-5.23;70.14;94013.50;5071161;28;20045;-61
2022/03/07 05:53:39;;;;;;;27.02;12.30;;;;;;;-5.23;70.52;94008.16;5071570;28;20052;-61
2022/03/07 05:56:06;;;;;;;28.00;11.77;;;;;;;-5.19;70.18;94016.31;5069482;28;20047;-61
2022/03/07 05:58:33;;;;;;;29.38;12.70;;;;;;;-5.22;70.09;94025.78;5071721;28;20109;-61
2022/03/07 06:00:59;;;;;;;26.33;12.38;;;;;;;-5.23;70.58;94024.22;5070465;28;20041;-61
2022/03/07 06:03:26;;;;;;;32.10;14.73;;;;;;;-5.24;70.66;94041.34;5071580;28;20040;-61
2022/03/07 06:05:53;;;;;;;28.05;12.70;;;;;;;-5.24;70.72;94031.44;5052564;28;20048;-61
2022/03/07 06:08:20;;;;;;;28.37;12.23;;;;;;;-5.10;69.89;94035.88;5050453;28;20047;-61
2022/03/07 06:10:47;;;;;;;28.55;12.35;;;;;;;-5.14;70.36;94040.28;5051215;28;20045;-61
2022/03/07 06:13:13;;;;;;;29.15;13.02;;;;;;;-5.07;70.14;94040.56;5050836;28;20051;-61
2022/03/07 06:15:43;;;;;;;27.38;11.60;;;;;;;-5.05;70.31;94041.03;5051161;28;20051;-61
2022/03/07 06:18:11;;;;;;;26.98;12.20;;;;;;;-5.03;69.64;94042.31;5051336;28;20051;-61
2022/03/07 06:20:39;;;;;;;25.60;11.93;;;;;;;-4.91;70.01;94044.38;5051234;28;20066;-61
2022/03/07 06:23:06;;;;;;;29.48;11.75;;;;;;;-4.91;69.61;94047.06;5050411;28;20049;-64
2022/03/07 06:25:34;;;;;;;32.08;13.57;;;;;;;-4.91;70.03;94049.75;5051100;28;20049;-60
2022/03/07 06:28:01;;;;;;;27.25;12.18;;;;;;;-4.87;69.65;94049.88;5050334;28;20441;-60
2022/03/07 06:30:28;;;;;;;32.33;13.52;;;;;;;-4.86;69.11;94046.09;5051002;28;20049;-60
2022/03/07 06:32:55;;;;;;;25.37;11.67;;;;;;;-4.93;69.56;94046.59;5048735;28;20164;-58
2022/03/07 06:35:22;;;;;;;28.50;12.05;;;;;;;-4.80;69.16;94052.88;5050675;28;20041;-60
2022/03/07 06:37:51;;;;;;;27.45;12.02;;;;;;;-4.76;68.67;94042.34;5050086;28;20103;-59
2022/03/07 06:40:19;;;;;;;30.10;12.02;;;;;;;-4.69;69.41;94048.78;5050507;28;20076;-60
2022/03/07 06:42:47;;;;;;;27.15;12.05;;;;;;;-4.66;68.85;94052.72;5050852;28;20041;-62
2022/03/07 06:45:16;;;;;;;28.57;13.00;;;;;;;-4.60;68.77;94064.84;5050048;28;20053;-60
2022/03/07 06:47:44;;;;;;;24.92;11.73;;;;;;;-4.35;67.90;94049.84;5050988;28;20072;-60
2022/03/07 06:50:12;;;;;;;26.38;11.80;;;;;;;-4.32;67.65;94053.78;5050115;28;20045;-61
2022/03/07 06:52:39;;;;;;;25.40;11.80;;;;;;;-4.32;67.71;94059.16;5049897;28;20189;-60
2022/03/07 06:55:06;;;;;;;29.98;12.70;;;;;;;-4.49;67.60;94073.34;5048406;28;20073;-60
2022/03/07 06:57:33;;;;;;;25.77;11.60;;;;;;;-4.26;67.54;94064.03;5032610;28;20045;-60
2022/03/07 07:00:00;;;;;;;26.52;11.30;;;;;;;-4.03;66.59;94051.19;5048241;28;20041;-60
2022/03/07 07:02:27;;;;;;;31.27;13.25;;;;;;;-3.84;66.45;94066.13;5050336;28;20045;-60
2022/03/07 07:04:54;;;;;;;29.20;12.55;;;;;;;-3.96;66.43;94071.34;5042994;28;20710;-60
2022/03/07 07:07:21;;;;;;;26.77;12.85;;;;;;;-3.84;66.31;94064.22;5057976;28;20413;-60
2022/03/07 07:09:48;;;;;;;28.27;13.37;;;;;;;-3.98;66.35;94069.00;5038905;28;20044;-62
2022/03/07 07:12:14;;;;;;;23.05;10.20;;;;;;;-4.10;67.24;94066.97;5050091;28;20056;-60
2022/03/07 07:14:41;;;;;;;27.70;12.98;;;;;;;-3.62;65.43;94063.19;5048853;28;20052;-60
2022/03/07 07:17:08;;;;;;;27.80;12.75;;;;;;;-3.71;65.94;94067.03;5049486;28;20047;-60
2022/03/07 07:19:35;;;;;;;27.73;12.77;;;;;;;-4.08;66.44;94064.78;5048939;28;20051;-61
2022/03/07 07:22:02;;;;;;;26.83;12.33;;;;;;;-3.91;66.41;94063.16;5047912;28;20048;-60
2022/03/07 07:24:29;;;;;;;26.65;13.02;;;;;;;-3.33;64.26;94067.00;5050033;28;20041;-60
2022/03/07 07:26:56;;;;;;;26.40;12.32;;;;;;;-3.15;63.84;94051.59;5049293;28;20138;-60
2022/03/07 07:29:23;;;;;;;26.27;13.18;;;;;;;-3.19;63.33;94053.34;5049733;28;20051;-60
2022/03/07 07:31:51;;;;;;;26.75;12.15;;;;;;;-2.30;62.03;94063.13;5049812;28;20041;-63
2022/03/07 07:34:20;;;;;;;23.80;12.30;;;;;;;0.68;53.80;94061.16;5049876;28;20063;-60
2022/03/07 07:36:48;;;;;;;23.48;11.73;;;;;;;2.20;48.37;94047.78;5049839;28;20057;-60
2022/03/07 07:39:16;;;;;;;28.15;14.30;;;;;;;2.30;47.06;94055.31;5049418;28;20588;-60
2022/03/07 07:41:43;;;;;;;24.40;13.57;;;;;;;5.32;41.73;94050.94;5049631;28;20044;-59
2022/03/07 07:44:10;;;;;;;24.77;13.98;;;;;;;3.12;42.54;94060.53;5048686;28;20106;-59
2022/03/07 07:46:37;;;;;;;23.63;14.10;;;;;;;2.98;44.78;94061.91;5049502;28;20053;-59
2022/03/07 07:49:04;;;;;;;23.10;14.43;;;;;;;2.20;46.78;94064.81;5047658;28;20117;-59
2022/03/07 07:51:31;;;;;;;23.25;14.73;;;;;;;4.61;42.56;94070.94;5049823;28;20037;-60
2022/03/07 07:53:57;;;;;;;25.15;14.63;;;;;;;4.55;40.55;94072.44;5048651;28;20067;-60
2022/03/07 07:56:24;;;;;;;23.75;14.60;;;;;;;4.58;39.63;94075.16;5031691;28;20037;-59
2022/03/07 07:58:51;;;;;;;24.00;14.93;;;;;;;6.25;38.32;94075.16;5049417;28;20047;-63
2022/03/07 08:01:18;;;;;;;22.73;14.77;;;;;;;8.31;34.42;94074.72;5047946;28;20059;-59
2022/03/07 08:03:45;;;;;;;21.27;14.52;;;;;;;5.69;37.35;94080.69;5048858;28;20045;-59
2022/03/07 08:06:12;;;;;;;22.95;14.65;;;;;;;8.44;33.29;94070.41;5028946;28;20086;-60
2022/03/07 08:08:39;;;;;;;23.02;14.85;;;;;;;9.29;31.47;94073.78;5029070;28;20055;-59
2022/03/07 08:11:05;;;;;;;23.83;16.50;;;;;;;3.22;41.97;94088.97;5028413;28;20049;-60
2022/03/07 08:13:32;;;;;;;22.60;15.35;;;;;;;7.79;33.48;94088.97;5029347;28;20079;-60
2022/03/07 08:15:59;;;;;;;21.13;14.23;;;;;;;9.76;30.22;94078.88;5047420;28;20033;-59
2022/03/07 08:18:26;;;;;;;21.45;14.93;;;;;;;10.52;28.96;94084.34;5068686;28;20049;-60
2022/03/07 08:20:56;;;;;;;24.17;16.05;;;;;;;7.38;32.61;94094.84;5068786;28;20044;-61
2022/03/07 08:23:22;;;;;;;22.27;15.70;;;;;;;5.86;36.59;94087.44;5067732;28;20693;-60
2022/03/07 08:25:49;;;;;;;23.65;16.52;;;;;;;4.85;36.95;94096.81;5069204;28;20516;-59
2022/03/07 08:28:16;;;;;;;23.00;15.80;;;;;;;7.16;34.63;94096.78;5068773;28;20047;-60
2022/03/07 08:30:42;;;;;;;20.48;15.00;;;;;;;10.12;29.88;94087.53;5068740;28;20052;-60
2022/03/07 08:33:09;;;;;;;22.48;15.30;;;;;;;8.63;31.77;94084.78;5068175;28;20539;-60
2022/03/07 08:35:36;;;;;;;21.20;15.33;;;;;;;11.13;28.65;94080.81;5068946;28;20041;-60
2022/03/07 08:38:03;;;;;;;23.33;16.13;;;;;;;8.86;29.77;94087.78;5068157;28;20413;-60
2022/03/07 08:40:30;;;;;;;21.90;15.80;;;;;;;8.06;30.50;94091.25;5069045;28;20046;-60
2022/03/07 08:42:57;;;;;;;21.10;15.68;;;;;;;9.66;29.32;94088.75;5066843;28;20036;-60
2022/03/07 08:45:28;;;;;;;23.02;16.13;;;;;;;6.11;35.06;94095.75;5068850;28;20113;-60
2022/03/07 08:48:14;;;;;;;22.97;16.70;;;;;;;6.40;32.96;94093.16;5068248;28;21943;-60
2022/03/07 08:50:41;;;;;;;23.00;17.38;;;;;;;2.93;41.48;94104.78;5067562;28;20037;-60
2022/03/07 08:53:08;;;;;;;24.42;18.30;;;;;;;2.27;42.22;94110.19;5064484;28;20045;-60
2022/03/07 08:55:35;;;;;;;22.27;15.05;;;;;;;7.01;35.40;94104.19;5042275;28;20045;-60
2022/03/07 08:58:01;;;;;;;23.00;15.85;;;;;;;9.79;29.74;94103.50;5043194;28;20037;-60
2022/03/07 09:00:29;;;;;;;21.57;15.37;;;;;;;9.09;29.98;94095.44;5028796;28;20045;-60
2022/03/07 09:02:55;;;;;;;22.10;15.60;;;;;;;7.78;31.71;94095.59;5028407;28;20049;-60
2022/03/07 09:05:22;;;;;;;22.25;15.75;;;;;;;6.26;34.50;94095.78;5042960;28;20041;-60
2022/03/07 09:07:49;;;;;;;21.60;16.10;;;;;;;7.41;32.07;94091.34;5048517;28;20512;-61
2022/03/07 09:10:16;;;;;;;22.85;16.75;;;;;;;4.06;37.67;94097.88;5047912;28;20476;-60
2022/03/07 09:12:43;;;;;;;23.40;15.97;;;;;;;6.55;34.93;94093.97;5047400;28;20409;-60
2022/03/07 09:15:10;;;;;;;22.13;15.80;;;;;;;7.58;32.29;94092.50;5047187;28;20044;-60
2022/03/07 09:17:37;;;;;;;21.50;14.95;;;;;;;10.89;27.78;94088.19;5048153;28;20041;-60
2022/03/07 09:20:05;;;;;;;23.00;15.32;;;;;;;11.73;27.06;94087.31;5047943;28;20049;-61
2022/03/07 09:22:32;;;;;;;20.98;15.07;;;;;;;9.54;28.73;94100.22;5048440;28;20056;-60
2022/03/07 09:24:59;;;;;;;20.43;14.97;;;;;;;9.64;28.22;94106.78;5046516;28;20055;-61
2022/03/07 09:27:26;;;;;;;20.88;14.77;;;;;;;12.46;26.19;94104.09;5048345;28;20045;-61
2022/03/07 09:29:53;;;;;;;19.65;14.38;;;;;;;14.68;23.39;94094.56;5046941;28;20509;-61
2022/03/07 09:32:20;;;;;;;20.55;14.60;;;;;;;15.76;21.66;94092.16;5047382;28;20047;-61
2022/03/07 09:34:47;;;;;;;21.27;15.43;;;;;;;12.95;24.52;94095.22;5048069;28;20677;-61
2022/03/07 09:37:14;;;;;;;20.80;15.20;;;;;;;15.90;21.51;94094.44;5046962;28;20207;-61
2022/03/07 09:39:41;;;;;;;22.10;17.08;;;;;;;5.08;33.32;94101.28;5047993;28;20127;-61
2022/03/07 09:42:08;;;;;;;22.60;16.88;;;;;;;5.86;32.99;94128.28;5047025;28;20049;-61
2022/03/07 09:44:35;;;;;;;21.92;15.60;;;;;;;8.25;31.83;94109.94;5048066;28;20052;-61
2022/03/07 09:47:04;;;;;;;23.45;15.60;;;;;;;8.32;30.65;94122.78;5047249;28;20079;-61
2022/03/07 09:49:32;;;;;;;22.47;14.60;;;;;;;9.69;28.03;94128.28;5046691;28;20048;-60
2022/03/07 09:52:00;;;;;;;20.90;14.82;;;;;;;8.34;29.86;94123.94;5046148;28;20498;-61
2022/03/07 09:54:27;;;;;;;20.58;14.18;;;;;;;9.18;28.89;94127.88;5037234;28;20045;-61
2022/03/07 09:56:55;;;;;;;19.95;14.32;;;;;;;9.38;27.48;94131.63;5038104;28;20049;-61
2022/03/07 09:59:23;;;;;;;21.40;14.98;;;;;;;8.26;28.72;94133.34;5079072;28;20322;-60
2022/03/07 10:02:01;;;;;;;22.93;14.70;;;;;;;7.66;30.24;94135.00;5048216;28;20550;-60
2022/03/07 10:04:38;;;;;;;20.30;13.85;;;;;;;7.51;30.83;94131.53;5045750;28;20463;-60
2022/03/07 10:07:05;;;;;;;22.33;15.30;;;;;;;7.42;30.76;94124.88;5045657;28;20056;-60
2022/03/07 10:09:32;;;;;;;20.25;14.00;;;;;;;9.66;27.40;94129.06;5047923;28;20567;-61
2022/03/07 10:12:00;;;;;;;20.75;14.30;;;;;;;10.35;27.41;94121.78;5047265;28;20045;-61
2022/03/07 10:14:31;;;;;;;20.80;14.30;;;;;;;9.62;27.04;94120.91;5047787;28;20045;-60
2022/03/07 10:16:58;;;;;;;20.85;14.55;;;;;;;9.50;27.69;94126.88;5046484;28;20053;-61
2022/03/07 10:19:26;;;;;;;21.27;14.73;;;;;;;8.18;29.53;94120.88;5047918;28;20056;-60
2022/03/07 10:21:53;;;;;;;21.77;14.60;;;;;;;7.68;30.58;94129.94;5046168;28;20052;-60
2022/03/07 10:24:34;;;;;;;19.88;14.15;;;;;;;11.05;26.42;94129.56;5046753;28;20041;-61
2022/03/07 10:27:01;;;;;;;21.47;14.50;;;;;;;11.32;25.70;94126.03;5048615;28;20068;-61
2022/03/07 10:29:27;;;;;;;21.70;13.68;;;;;;;6.19;32.09;94145.59;5051266;28;20049;-60
2022/03/07 10:31:58;;;;;;;21.05;14.73;;;;;;;6.67;32.58;94139.97;5050721;28;20441;-60
2022/03/07 10:34:26;;;;;;;21.70;15.43;;;;;;;7.12;31.17;94137.75;5051473;28;20052;-61
2022/03/07 10:36:53;;;;;;;21.23;14.30;;;;;;;11.62;25.25;94125.19;5051139;28;20049;-61
2022/03/07 10:39:27;;;;;;;21.37;14.27;;;;;;;9.20;27.48;94128.25;5050181;28;20390;-60
2022/03/07 10:41:54;;;;;;;21.50;14.70;;;;;;;10.46;26.15;94122.44;5051130;28;20084;-61
2022/03/07 10:44:26;;;;;;;21.42;14.40;;;;;;;6.30;31.08;94138.28;5049878;28;20665;-61
2022/03/07 10:47:05;;;;;;;22.63;16.13;;;;;;;5.09;34.81;94143.63;5051169;28;20047;-61
2022/03/07 10:49:32;;;;;;;23.25;14.70;;;;;;;9.27;27.98;94138.38;5050329;28;20750;-61
2022/03/07 10:52:03;;;;;;;23.10;16.13;;;;;;;3.50;35.07;94137.44;5050617;28;20417;-60
2022/03/07 10:54:35;;;;;;;20.77;14.30;;;;;;;9.61;27.17;94133.03;5051350;28;20148;-61
2022/03/07 10:57:03;;;;;;;22.27;15.75;;;;;;;3.89;35.73;94142.66;5049969;28;20053;-60
2022/03/07 10:59:32;;;;;;;21.73;15.02;;;;;;;7.93;30.02;94126.41;5050646;28;20053;-61
2022/03/07 11:02:09;;;;;;;19.88;13.30;;;;;;;10.39;25.46;94134.28;5050002;28;20049;-61
2022/03/07 11:04:38;;;;;;;21.40;13.60;;;;;;;8.29;28.10;94140.78;5050584;28;20140;-61
2022/03/07 11:07:06;;;;;;;23.05;14.68;;;;;;;7.54;30.55;94125.25;5049591;28;20562;-61
2022/03/07 11:09:33;;;;;;;21.55;14.27;;;;;;;9.91;27.50;94126.88;5050572;28;20075;-60
2022/03/07 11:12:00;;;;;;;22.60;14.45;;;;;;;11.62;25.20;94129.91;5049975;28;20506;-60
2022/03/07 11:14:27;;;;;;;19.10;13.23;;;;;;;14.03;20.77;94123.09;5050480;28;20396;-61
2022/03/07 11:16:56;;;;;;;19.73;13.80;;;;;;;12.08;23.54;94126.41;5050109;28;20065;-61
2022/03/07 11:19:26;;;;;;;18.35;13.43;;;;;;;13.27;22.96;94124.81;5049666;28;20048;-61
2022/03/07 11:21:55;;;;;;;19.02;14.77;;;;;;;12.16;22.23;94122.31;5050124;28;20048;-61